Latest Weather Observations for Khancoban

IDN60801

Issued at 10:22 am EDT Friday 15 November 2019 (issued every 10 minutes, with the page automatically refreshed every 10 minutes)

About weather observations | Map of weather stations | Latest weather observations for NSW | Other Formats
Station Details ID: 072162 Name: KHANCOBAN AWS Lat: -36.23 Lon: 148.14 Height: 339.3 m
Data from the previous 72 hours. | See also: Recent months at Khancoban
Date/Time
EDT
Temp
°C
App
Temp
°C
Dew
Point
°C
Rel
Hum
%
Delta-T
°C
Wind Press
QNH
hPa
Press
MSL
hPa
Rain since
9am
mm
Dir  Spd
km/h
Gust
km/h
Spd
kts
Gust
kts
15/10:00am 19.2 17.7 10.7 58 4.7 WNW 9 20 5 11 1011.8 1011.0 0.0
15/09:30am 16.6 16.8 10.7 68 3.2 CALM 0 0 0 0 1011.9 1011.1 0.0
15/09:00am 15.1 15.2 10.3 73 2.6 CALM 0 0 0 0 1012.2 1011.3 0.0
15/08:30am 13.8 14.5 12.2 90 0.9 CALM 0 0 0 0 1012.4 1011.5 0.0
15/08:00am 11.6 11.9 11.0 96 0.3 CALM 0 0 0 0 1012.6 1011.7 0.0
15/07:30am 10.2 10.3 10.2 100 0.0 CALM 0 0 0 0 1012.7 1011.8 0.0
15/07:00am 8.3 7.9 8.3 100 0.0 CALM 0 0 0 0 1012.5 1011.6 0.0
15/06:30am 7.8 7.3 7.8 100 0.0 CALM 0 0 0 0 1012.2 1011.3 0.0
15/06:00am 8.4 8.0 8.4 100 0.0 CALM 0 0 0 0 1011.8 1011.0 0.0
15/05:30am 9.1 8.9 9.1 100 0.0 CALM 0 0 0 0 1011.5 1010.6 0.0
15/05:00am 9.8 9.8 9.8 100 0.0 CALM 0 0 0 0 1011.4 1010.5 0.0
15/04:30am 9.6 9.5 9.6 100 0.0 CALM 0 0 0 0 1011.3 1010.4 0.0
15/04:00am 9.4 9.3 9.4 100 0.0 CALM 0 0 0 0 1011.6 1010.8 0.0
15/03:30am 9.8 9.8 9.8 100 0.0 CALM 0 0 0 0 1011.8 1011.0 0.0
15/03:00am 9.6 9.5 9.6 100 0.0 CALM 0 0 0 0 1012.2 1011.3 0.0
15/02:30am 9.8 9.8 9.8 100 0.0 CALM 0 6 0 3 1012.4 1011.5 0.0
15/02:00am 10.0 9.7 10.0 100 0.0 NE 2 6 1 3 1012.8 1011.9 0.0
15/01:30am 10.6 10.7 10.1 97 0.3 CALM 0 0 0 0 1012.9 1012.0 0.0
15/01:00am 11.0 11.2 10.5 97 0.3 CALM 0 0 0 0 1013.3 1012.4 0.0
15/12:30am 10.5 10.5 9.9 96 0.3 CALM 0 0 0 0 1013.3 1012.4 0.0
15/12:00am 11.8 11.6 10.4 91 0.7 NE 2 7 1 4 1013.3 1012.4 0.0
 
Date/Time
EDT
Temp
°C
App
Temp
°C
Dew
Point
°C
Rel
Hum
%
Delta-T
°C
Wind Press
QNH
hPa
Press
MSL
hPa
Rain since
9am
mm
Dir  Spd
km/h
Gust
km/h
Spd
kts
Gust
kts
14/11:30pm 11.4 11.5 10.0 91 0.7 CALM 0 0 0 0 1013.5 1012.6 0.0
14/11:00pm 12.1 12.3 10.7 91 0.7 CALM 0 0 0 0 1013.8 1012.9 0.0
14/10:30pm 12.6 12.0 10.3 86 1.2 ENE 4 7 2 4 1013.9 1013.0 0.0
14/10:00pm 13.5 13.7 10.5 82 1.6 CALM 0 0 0 0 1013.9 1013.0 0.0
14/09:30pm 13.6 12.5 10.0 79 1.9 SSE 6 9 3 5 1014.1 1013.2 0.0
14/09:00pm 14.1 14.2 10.1 77 2.1 CALM 0 0 0 0 1013.9 1013.0 0.0
14/08:30pm 14.3 13.6 9.9 75 2.3 SSE 4 6 2 3 1013.8 1012.9 0.0
14/08:00pm 15.1 14.1 10.3 73 2.6 SE 6 11 3 6 1013.7 1012.8 0.0
14/07:30pm 16.9 15.1 9.6 62 3.9 ENE 9 11 5 6 1013.5 1012.6 0.0
14/07:00pm 18.2 19.0 12.6 70 3.2 CALM 0 0 0 0 1013.6 1012.7 0.0
14/06:30pm 18.5 17.1 9.0 54 5.0 WNW 6 7 3 4 1013.3 1012.4 0.0
14/06:00pm 19.6 17.9 9.8 53 5.3 NW 9 13 5 7 1013.5 1012.6 0.0
14/05:30pm 19.5 16.8 8.8 50 5.7 W 13 17 7 9 1013.7 1012.8 0.0
14/05:00pm 19.6 17.7 7.7 46 6.2 WNW 7 11 4 6 1013.8 1012.9 0.0
14/04:30pm 19.5 17.1 8.8 50 5.7 WNW 11 17 6 9 1013.9 1013.0 0.0
14/04:00pm 20.1 17.1 7.8 45 6.4 WNW 13 26 7 14 1014.1 1013.2 0.0
14/03:30pm 19.6 16.7 9.5 52 5.4 WNW 15 22 8 12 1014.3 1013.5 0.0
14/03:00pm 19.1 16.0 9.0 52 5.4 NW 15 20 8 11 1014.6 1013.8 0.0
14/02:30pm 19.3 16.8 8.0 48 5.9 NNW 11 20 6 11 1014.9 1014.1 0.0
14/02:00pm 18.9 16.2 8.8 52 5.4 NNW 13 19 7 10 1015.2 1014.3 0.0
14/01:30pm 19.0 17.2 8.1 49 5.7 WSW 7 9 4 5 1015.4 1014.5 0.0
14/01:00pm 18.3 16.4 7.7 50 5.5 E 7 15 4 8 1015.8 1014.9 0.0
14/12:30pm 17.9 15.7 7.9 52 5.2 WSW 9 13 5 7 1016.1 1015.2 0.0
14/12:00pm 18.3 16.6 8.3 52 5.2 SW 7 11 4 6 1016.5 1015.6 0.0
14/11:30am 17.3 16.4 7.9 54 4.8 SW 2 7 1 4 1016.7 1015.9 0.0
14/11:00am 16.8 15.1 8.2 57 4.4 WSW 7 11 4 6 1017.0 1016.2 0.0
14/10:30am 15.9 14.3 6.3 53 4.8 W 4 9 2 5 1017.3 1016.5 0.0
14/10:00am 15.2 11.9 8.2 63 3.6 WNW 15 19 8 10 1017.3 1016.5 0.0
14/09:30am 15.9 14.8 9.8 67 3.2 SW 6 13 3 7 1017.2 1016.4 0.0
14/09:00am 14.4 13.2 7.9 65 3.3 E 4 7 2 4 1017.2 1016.4 0.0
14/08:30am 13.0 12.1 7.7 70 2.6 SW 2 7 1 4 1017.2 1016.4 0.0
14/08:00am 11.7 11.5 8.9 83 1.4 CALM 0 0 0 0 1017.0 1016.2 0.0
14/07:30am 10.7 10.5 9.1 90 0.8 CALM 0 0 0 0 1016.8 1016.0 0.0
14/07:00am 10.1 9.8 8.7 91 0.7 CALM 0 0 0 0 1016.7 1015.9 0.0
14/06:30am 9.4 8.0 8.8 96 0.3 NW 6 7 3 4 1016.4 1015.5 0.0
14/06:00am 9.4 9.1 8.6 95 0.4 CALM 0 0 0 0 1016.1 1015.2 0.0
14/05:30am 9.4 8.8 8.8 96 0.3 WNW 2 7 1 4 1015.5 1014.6 0.0
14/05:00am 9.6 9.2 8.4 92 0.6 CALM 0 0 0 0 1015.2 1014.3 0.0
14/04:30am 9.6 9.2 8.2 91 0.7 CALM 0 0 0 0 1015.0 1014.2 0.0
14/04:00am 9.2 8.7 7.8 91 0.7 CALM 0 0 0 0 1015.2 1014.3 0.0
14/03:30am 10.1 9.7 8.2 88 0.9 CALM 0 0 0 0 1015.4 1014.5 0.0
14/03:00am 10.2 9.7 8.0 86 1.1 CALM 0 0 0 0 1015.8 1014.9 0.0
14/02:30am 10.3 9.8 7.7 84 1.3 CALM 0 0 0 0 1015.8 1014.9 0.0
14/02:00am 10.5 10.0 7.9 84 1.3 CALM 0 0 0 0 1015.7 1014.8 0.0
14/01:30am 10.5 10.0 7.9 84 1.3 CALM 0 0 0 0 1015.8 1014.9 0.0
14/01:00am 10.7 9.5 7.9 83 1.4 ENE 4 9 2 5 1015.8 1014.9 0.0
14/12:30am 11.4 10.7 6.9 74 2.2 CALM 0 0 0 0 1016.0 1015.1 0.0
14/12:00am 11.8 11.0 6.3 69 2.6 CALM 0 0 0 0 1016.0 1015.1 0.0
 
Date/Time
EDT
Temp
°C
App
Temp
°C
Dew
Point
°C
Rel
Hum
%
Delta-T
°C
Wind Press
QNH
hPa
Press
MSL
hPa
Rain since
9am
mm
Dir  Spd
km/h
Gust
km/h
Spd
kts
Gust
kts
13/11:30pm 12.0 10.7 5.9 66 2.9 NNE 2 6 1 3 1016.3 1015.4 0.0
13/11:00pm 13.5 12.5 5.7 59 3.7 CALM 0 0 0 0 1016.4 1015.5 0.0
13/10:30pm 14.0 12.9 4.9 54 4.3 CALM 0 0 0 0 1016.4 1015.5 0.0
13/10:00pm 14.3 11.7 4.0 50 4.8 N 7 13 4 7 1016.6 1015.7 0.0
13/09:30pm 14.1 11.0 3.8 50 4.8 NNW 9 11 5 6 1016.8 1016.0 0.0
13/09:00pm 13.9 12.2 3.9 51 4.6 NNW 2 22 1 12 1016.3 1015.4 0.0
13/08:30pm 13.9 12.7 4.5 53 4.4 CALM 0 0 0 0 1015.8 1014.9 0.0
13/08:00pm 14.0 12.7 4.0 51 4.6 CALM 0 0 0 0 1015.4 1014.5 0.0
13/07:30pm 14.3 13.1 4.6 52 4.6 CALM 0 0 0 0 1015.2 1014.3 0.0
13/07:00pm 15.4 14.2 4.8 49 5.1 CALM 0 0 0 0 1014.8 1014.0 0.0
13/06:30pm 15.7 14.2 2.8 42 5.9 CALM 0 0 0 0 1014.5 1013.7 0.0
13/06:00pm 17.0 15.6 3.3 40 6.4 CALM 0 0 0 0 1014.2 1013.4 0.0
13/05:30pm 17.5 16.1 3.8 40 6.5 CALM 0 0 0 0 1014.2 1013.4 0.0
13/05:00pm 17.7 16.2 2.8 37 7.0 CALM 0 0 0 0 1014.1 1013.2 0.0
13/04:30pm 18.0 16.6 3.5 38 6.9 CALM 0 0 0 0 1014.1 1013.2 0.0
13/04:00pm 18.0 17.1 5.9 45 6.0 CALM 0 0 0 0 1014.0 1013.1 0.0
13/03:30pm 17.6 16.3 4.2 41 6.4 CALM 0 0 0 0 1014.1 1013.2 0.0
13/03:00pm 16.9 15.5 3.6 41 6.3 CALM 0 0 0 0 1014.3 1013.5 0.0
13/02:30pm 16.4 15.0 3.8 43 5.9 CALM 0 0 0 0 1014.8 1014.0 0.0
13/02:00pm 16.0 13.4 3.4 43 5.9 NNW 6 15 3 8 1015.5 1014.6 0.0
13/01:30pm 14.8 10.2 3.6 47 5.2 NNW 17 32 9 17 1015.6 1014.7 0.0
13/01:00pm 15.3 10.3 3.5 45 5.5 NNW 19 26 10 14 1015.7 1014.8 0.0
13/12:30pm 14.9 13.6 4.0 48 5.1 CALM 0 0 0 0 1015.7 1014.8 0.0
13/12:00pm 14.3 11.3 4.0 50 4.8 NNW 9 17 5 9 1016.1 1015.2 0.0
13/11:30am 13.4 9.2 1.4 44 5.2 NW 13 24 7 13 1016.7 1015.9 0.0
13/11:00am 12.2 9.2 1.8 49 4.5 NNW 7 20 4 11 1016.8 1016.0 0.0
13/10:30am 12.0 10.4 2.5 52 4.2 CALM 0 0 0 0 1016.9 1016.1 0.0
13/10:00am 10.5 6.9 0.5 50 4.2 N 9 19 5 10 1016.9 1016.1 0.0
13/09:30am 10.5 8.4 1.6 54 3.8 N 2 19 1 10 1017.0 1016.2 0.0
13/09:00am 10.3 8.6 1.9 56 3.6 CALM 0 15 0 8 1017.1 1016.3 0.0
13/08:30am 9.7 8.1 2.3 60 3.2 CALM 0 15 0 8 1016.3 1015.4 0.0
13/08:00am 8.9 7.1 1.1 58 3.2 CALM 0 0 0 0 1016.1 1015.2 0.0
13/07:30am 7.7 5.9 0.9 62 2.8 CALM 0 0 0 0 1015.9 1015.0 0.0
13/07:00am 5.4 3.7 1.7 77 1.5 CALM 0 0 0 0 1015.6 1014.7 0.0
13/06:30am 3.5 1.7 0.9 83 1.0 CALM 0 7 0 4 1015.0 1014.2 0.0
13/06:00am 3.8 0.6 -0.2 75 1.5 NNE 6 11 3 6 1014.6 1013.8 0.0
13/05:30am 5.0 3.0 0.2 71 1.9 CALM 0 0 0 0 1014.4 1013.6 0.0
13/05:00am 6.0 4.0 -0.1 65 2.4 CALM 0 0 0 0 1013.9 1013.0 0.0
13/04:30am 5.9 4.0 0.5 68 2.1 CALM 0 0 0 0 1013.8 1012.9 0.0
13/04:00am 7.0 5.1 0.5 63 2.6 CALM 0 0 0 0 1013.7 1012.8 0.0
13/03:30am 5.2 2.1 0.2 70 2.0 NE 6 7 3 4 1013.7 1012.8 0.0
13/03:00am 7.1 4.8 0.5 63 2.7 NNW 2 11 1 6 1013.4 1012.5 0.0
13/02:30am 8.1 6.3 1.0 61 2.9 CALM 0 0 0 0 1013.4 1012.5 0.0
13/02:00am 9.2 7.3 0.6 55 3.6 CALM 0 0 0 0 1013.1 1012.2 0.0
13/01:30am 10.3 8.7 2.2 57 3.5 CALM 0 0 0 0 1013.0 1012.1 0.0
13/01:00am 10.5 8.9 2.4 57 3.5 CALM 0 0 0 0 1012.9 1012.0 0.0
13/12:30am 12.0 10.3 1.6 49 4.5 CALM 0 0 0 0 1012.9 1012.0 0.0
13/12:00am 12.0 10.3 1.9 50 4.4 CALM 0 0 0 0 1012.4 1011.5 0.0
 
Date/Time
EDT
Temp
°C
App
Temp
°C
Dew
Point
°C
Rel
Hum
%
Delta-T
°C
Wind Press
QNH
hPa
Press
MSL
hPa
Rain since
9am
mm
Dir  Spd
km/h
Gust
km/h
Spd
kts
Gust
kts
12/11:30pm 11.5 9.7 1.5 50 4.3 CALM 0 0 0 0 1012.1 1011.2 0.0
12/11:00pm 12.3 9.9 -0.2 42 5.2 NW 2 7 1 4 1011.6 1010.8 0.0
12/10:30pm 12.4 7.9 -0.1 42 5.2 NW 13 19 7 10 1011.6 1010.8 0.0
12/10:00pm 13.1 9.8 -0.2 40 5.6 NW 7 33 4 18 1011.1 1010.2 0.0
12/09:30pm 13.0 9.2 1.7 46 5.0 NW 11 24 6 13 1010.8 1009.9 0.0
12/09:00pm 12.7 11.1 2.3 49 4.6 CALM 0 0 0 0 1010.4 1009.5 0.0
12/08:30pm 13.1 11.4 2.1 47 4.9 CALM 0 0 0 0 1010.0 1009.1 0.0
12/08:00pm 14.6 12.8 1.5 41 5.8 CALM 0 11 0 6 1009.5 1008.6 0.0
12/07:30pm 15.8 12.9 1.2 37 6.5 NW 6 33 3 18 1009.1 1008.2 0.0
12/07:00pm 16.1 13.3 1.8 38 6.5 NW 6 33 3 18 1008.4 1007.5 0.0
12/06:30pm 17.5 14.5 1.9 35 7.1 NW 7 37 4 20 1007.7 1006.8 0.0
12/06:00pm 18.7 15.1 2.9 35 7.5 WNW 11 37 6 20 1007.0 1006.1 0.0
12/05:30pm 19.2 13.8 2.6 33 7.8 W 20 41 11 22 1006.3 1005.3 0.0
12/05:19pm 19.4 12.2 0.9 29 8.4 W 28 46 15 25 1006.0 1005.0 0.0
12/05:00pm 20.2 13.3 2.5 31 8.4 W 28 46 15 25 1005.5 1004.6 0.0
12/04:33pm 21.4 15.7 3.1 30 8.8 WNW 22 46 12 25 1004.8 1003.9 0.0
12/04:30pm 21.6 17.3 3.3 30 8.9 WNW 15 41 8 22 1004.8 1003.9 0.0
12/04:00pm 22.6 19.1 5.5 33 8.8 WNW 13 44 7 24 1004.3 1003.4 0.0
12/03:39pm 21.5 15.6 5.8 36 8.0 NW 26 52 14 28 1004.0 1003.1 0.0
12/03:30pm 21.7 17.5 5.6 35 8.2 NW 17 50 9 27 1003.9 1002.9 0.0
12/03:22pm 21.4 14.6 5.3 35 8.1 NNW 30 50 16 27 1003.4 1002.4 0.0
12/03:00pm 22.8 19.0 7.4 37 8.2 NNW 17 43 9 23 1003.4 1002.4 0.0
12/02:36pm 24.2 18.3 7.4 34 9.0 NW 28 48 15 26 1003.2 1002.2 0.0
12/02:30pm 23.6 15.9 7.3 35 8.6 NW 37 52 20 28 1003.2 1002.2 0.0
12/02:07pm 24.2 18.1 6.5 32 9.3 NNW 28 50 15 27 1003.0 1002.0 0.0
12/02:00pm 24.3 18.1 6.1 31 9.5 NNW 28 41 15 22 1003.0 1002.0 0.0
12/01:49pm 24.2 17.7 6.5 32 9.3 NW 30 48 16 26 1003.0 1002.0 0.0
12/01:30pm 23.5 17.4 4.9 30 9.4 N 26 41 14 22 1003.0 1002.0 0.0
12/01:00pm 23.0 16.1 4.5 30 9.3 NNW 30 48 16 26 1003.6 1002.6 0.0
12/12:59pm 23.0 16.5 4.5 30 9.3 NNW 28 48 15 26 1003.7 1002.7 0.0
12/12:55pm 23.1 17.0 6.8 35 8.5 NNW 28 41 15 22 1003.8 1002.8 0.0
12/12:30pm 22.4 22.2 9.2 43 7.2 CALM 0 0 0 0 1004.0 1003.1 0.0
12/12:00pm 19.0 18.8 10.3 57 4.8 SSW 2 7 1 4 1004.3 1003.4 0.0
12/11:30am 17.7 18.0 11.0 65 3.7 CALM 0 0 0 0 1004.9 1004.0 0.0
12/11:00am 15.0 15.3 12.3 84 1.5 ESE 2 7 1 4 1004.8 1003.9 0.0
12/10:30am 13.9 13.7 10.5 80 1.8 NE 2 11 1 6 1005.1 1004.2 0.0

Other formats

Comma delimited format used in spreadsheet applications
http://www.bom.gov.au/fwo/IDN60801/IDN60801.94919.axf

JavaScript Object Notation format (JSON) in row-major order
http://www.bom.gov.au/fwo/IDN60801/IDN60801.94919.json

Data quality

Most of these data are generated automatically and are frequently updated. Quality checks on data are not normally performed. It is possible for incorrect values to appear. Refer to information at About Latest Weather Observations and please check the disclaimer before using these data.